createdAt,value
2018-12-30T00:01:44.907Z,2.33
2018-12-30T00:04:13.202Z,2.40
2018-12-30T00:06:42.592Z,2.90
2018-12-30T00:09:10.633Z,2.50
2018-12-30T00:11:40.829Z,2.00
2018-12-30T00:14:09.041Z,2.50
2018-12-30T00:16:36.701Z,2.30
2018-12-30T00:19:04.700Z,2.83
2018-12-30T00:21:32.613Z,2.20
2018-12-30T00:24:00.599Z,2.47
2018-12-30T00:29:02.205Z,1.97
2018-12-30T00:31:30.101Z,2.43
2018-12-30T00:33:58.105Z,2.53
2018-12-30T00:36:26.081Z,2.27
2018-12-30T00:38:54.076Z,3.17
2018-12-30T00:41:40.839Z,2.73
2018-12-30T00:44:08.574Z,2.00
2018-12-30T00:46:36.236Z,2.13
2018-12-30T00:49:04.566Z,2.97
2018-12-30T00:51:32.607Z,2.60
2018-12-30T00:54:00.622Z,2.73
2018-12-30T00:56:28.537Z,2.97
2018-12-30T00:59:15.318Z,2.20
2018-12-30T01:01:43.698Z,2.30
2018-12-30T01:04:11.869Z,2.80
2018-12-30T01:06:58.642Z,2.40
2018-12-30T01:09:26.289Z,2.73
2018-12-30T01:11:54.269Z,2.40
2018-12-30T01:14:41.278Z,2.93
2018-12-30T01:17:08.921Z,2.40
2018-12-30T01:19:37.257Z,2.67
2018-12-30T01:24:51.867Z,2.23
2018-12-30T01:27:19.604Z,2.30
2018-12-30T01:29:47.249Z,2.70
2018-12-30T01:35:02.775Z,3.33
2018-12-30T01:37:30.413Z,2.33
2018-12-30T01:39:58.069Z,2.70
2018-12-30T01:42:26.102Z,2.43
2018-12-30T01:44:54.438Z,2.73
2018-12-30T01:50:10.345Z,3.07
2018-12-30T01:52:38.377Z,2.67
2018-12-30T01:55:06.106Z,2.60
2018-12-30T01:57:34.026Z,3.23
2018-12-30T02:00:01.686Z,2.73
2018-12-30T02:02:29.686Z,3.17
2018-12-30T02:04:57.584Z,3.00
2018-12-30T02:07:25.569Z,2.90
2018-12-30T02:09:53.513Z,3.60
2018-12-30T02:12:23.485Z,2.80
2018-12-30T02:14:51.132Z,3.87
2018-12-30T02:17:19.040Z,2.73
2018-12-30T02:19:46.697Z,3.30
2018-12-30T02:22:33.461Z,2.40
2018-12-30T02:25:01.986Z,2.80
2018-12-30T02:27:29.654Z,2.60
2018-12-30T02:29:58.030Z,2.70
2018-12-30T02:32:25.682Z,2.17
2018-12-30T02:35:14.427Z,2.50
2018-12-30T02:37:42.364Z,2.40
2018-12-30T02:40:10.294Z,2.50
2018-12-30T02:45:25.143Z,3.50
2018-12-30T02:48:12.151Z,2.80
2018-12-30T02:53:16.007Z,2.63
2018-12-30T02:55:43.682Z,3.30
2018-12-30T02:58:12.245Z,2.40
2018-12-30T03:00:40.530Z,2.80
2018-12-30T03:03:08.667Z,2.93
2018-12-30T03:05:55.509Z,2.70
2018-12-30T03:08:23.164Z,2.33
2018-12-30T03:10:51.103Z,2.90
2018-12-30T03:13:19.056Z,2.53
2018-12-30T03:15:46.702Z,2.80
2018-12-30T03:20:48.829Z,2.70
2018-12-30T03:23:18.786Z,2.87
2018-12-30T03:25:46.429Z,2.60
2018-12-30T03:28:14.622Z,2.90
2018-12-30T03:30:42.283Z,2.73
2018-12-30T03:35:43.486Z,2.00
2018-12-30T03:38:11.173Z,2.10
2018-12-30T03:40:57.917Z,2.50
2018-12-30T03:43:26.178Z,2.33
2018-12-30T03:46:13.171Z,2.50
2018-12-30T03:48:41.451Z,2.70
2018-12-30T03:51:09.389Z,3.20
2018-12-30T03:53:37.057Z,2.33
2018-12-30T03:56:24.066Z,2.87
2018-12-30T03:58:51.989Z,2.57
2018-12-30T04:01:19.634Z,2.20
2018-12-30T04:03:47.886Z,3.50
2018-12-30T04:08:49.722Z,2.77
2018-12-30T04:11:17.725Z,2.30
2018-12-30T04:13:45.379Z,3.37
2018-12-30T04:16:13.345Z,2.70
2018-12-30T04:18:41.008Z,2.23
2018-12-30T04:21:09.246Z,2.37
2018-12-30T04:23:37.203Z,3.13
2018-12-30T04:26:05.122Z,2.13
2018-12-30T04:28:33.094Z,2.87
2018-12-30T04:31:01.061Z,2.60
2018-12-30T04:33:28.969Z,2.60
2018-12-30T04:35:56.638Z,2.60
2018-12-30T04:38:24.948Z,2.60
2018-12-30T04:40:52.589Z,2.37
2018-12-30T04:43:20.858Z,2.50
2018-12-30T04:45:48.784Z,2.00
2018-12-30T04:48:16.801Z,2.70
2018-12-30T04:50:45.163Z,2.50
2018-12-30T04:53:13.142Z,2.70
2018-12-30T04:55:41.727Z,2.63
2018-12-30T04:58:09.609Z,2.27
2018-12-30T05:00:37.826Z,2.80
2018-12-30T05:03:05.782Z,2.33
2018-12-30T05:05:34.120Z,3.27
2018-12-30T05:08:01.767Z,2.57
2018-12-30T05:10:29.434Z,2.60
2018-12-30T05:12:57.369Z,2.90
2018-12-30T05:17:59.601Z,2.83
2018-12-30T05:20:27.869Z,2.70
2018-12-30T05:26:01.795Z,2.87
2018-12-30T05:28:29.725Z,3.07
2018-12-30T05:30:57.684Z,2.50
2018-12-30T05:33:26.232Z,2.63
2018-12-30T05:35:54.175Z,2.47
2018-12-30T05:38:21.818Z,3.00
2018-12-30T05:43:36.644Z,2.63
2018-12-30T05:46:04.283Z,2.57
2018-12-30T05:51:06.269Z,2.63
2018-12-30T05:53:34.066Z,2.33
2018-12-30T05:56:02.417Z,2.53
2018-12-30T05:58:30.693Z,3.00
2018-12-30T06:01:17.442Z,3.50
2018-12-30T06:03:45.773Z,2.73
2018-12-30T06:06:13.953Z,2.40
2018-12-30T06:08:41.894Z,2.80
2018-12-30T06:11:09.529Z,2.97
2018-12-30T06:13:37.202Z,3.30
2018-12-30T06:16:05.109Z,3.57
2018-12-30T06:18:33.210Z,3.00
2018-12-30T06:21:01.181Z,2.67
2018-12-30T06:23:29.172Z,2.80
2018-12-30T06:28:31.721Z,2.70
2018-12-30T06:30:59.390Z,2.53
2018-12-30T06:33:27.034Z,3.37
2018-12-30T06:35:55.080Z,2.93
2018-12-30T06:38:23.013Z,3.00
2018-12-30T06:40:51.026Z,3.00
2018-12-30T06:43:19.036Z,3.53
2018-12-30T06:45:47.294Z,3.27
2018-12-30T06:48:15.333Z,2.43
2018-12-30T06:50:43.694Z,2.53
2018-12-30T06:53:11.375Z,2.40
2018-12-30T06:55:39.458Z,2.40
2018-12-30T06:58:07.445Z,2.47
2018-12-30T07:00:35.579Z,3.13
2018-12-30T07:03:05.659Z,3.40
2018-12-30T07:05:34.225Z,2.80
2018-12-30T07:08:02.653Z,3.07
2018-12-30T07:10:30.324Z,2.20
2018-12-30T07:12:58.617Z,2.33
2018-12-30T07:15:45.371Z,2.77
2018-12-30T07:18:13.309Z,2.70
2018-12-30T07:20:41.290Z,2.70
2018-12-30T07:23:09.270Z,2.70
2018-12-30T07:25:37.356Z,2.70
2018-12-30T07:28:05.005Z,2.43
2018-12-30T07:30:32.661Z,2.20
2018-12-30T07:33:00.622Z,2.37
2018-12-30T07:35:28.681Z,3.07
2018-12-30T07:37:56.924Z,2.50
2018-12-30T07:40:24.850Z,2.83
2018-12-30T07:42:52.494Z,2.27
2018-12-30T07:45:20.460Z,2.60
2018-12-30T07:47:48.406Z,2.37
2018-12-30T07:50:16.474Z,2.97
2018-12-30T07:52:44.845Z,2.60
2018-12-30T07:55:13.393Z,3.03
2018-12-30T07:57:41.023Z,2.43
2018-12-30T08:00:09.408Z,2.70
2018-12-30T08:02:37.518Z,2.67
2018-12-30T08:05:05.188Z,2.80
2018-12-30T08:07:51.959Z,2.13
2018-12-30T08:10:19.637Z,2.83
2018-12-30T08:12:47.394Z,3.23
2018-12-30T08:15:15.062Z,2.23
2018-12-30T08:17:43.430Z,2.70
2018-12-30T08:20:11.765Z,2.80
2018-12-30T08:22:40.070Z,2.50
2018-12-30T08:25:08.365Z,2.83
2018-12-30T08:27:36.406Z,2.20
2018-12-30T08:30:04.665Z,2.40
2018-12-30T08:32:32.657Z,8.70
2018-12-30T08:35:00.322Z,3.70
2018-12-30T08:37:28.689Z,3.00
2018-12-30T08:39:56.730Z,3.00
2018-12-30T08:42:25.270Z,2.93
2018-12-30T08:47:40.551Z,2.40
2018-12-30T08:50:08.594Z,2.63
2018-12-30T08:52:36.495Z,2.40
2018-12-30T08:55:04.464Z,2.23
2018-12-30T08:57:32.207Z,2.30
2018-12-30T09:02:33.377Z,2.90
2018-12-30T09:05:01.779Z,2.20
2018-12-30T09:07:30.054Z,2.07
2018-12-30T09:10:17.287Z,2.07
2018-12-30T09:12:45.199Z,2.30
2018-12-30T09:15:12.850Z,2.00
2018-12-30T09:17:40.819Z,2.80
2018-12-30T09:20:08.749Z,2.03
2018-12-30T09:22:36.381Z,1.83
2018-12-30T09:27:38.889Z,2.10
2018-12-30T09:30:06.932Z,2.03
2018-12-30T09:32:53.978Z,2.20
2018-12-30T09:35:22.665Z,2.77
2018-12-30T09:37:50.675Z,7.27
2018-12-30T09:40:18.337Z,3.30
2018-12-30T09:42:46.362Z,2.83
2018-12-30T09:48:02.274Z,4.40
2018-12-30T09:50:30.857Z,3.90
2018-12-30T09:52:58.870Z,2.80
2018-12-30T09:55:27.410Z,2.53
2018-12-30T09:57:55.081Z,3.17
2018-12-30T10:00:23.185Z,2.93
2018-12-30T10:02:51.571Z,2.50
2018-12-30T10:05:19.586Z,3.10
2018-12-30T10:10:21.888Z,2.30
2018-12-30T10:12:49.834Z,2.00
2018-12-30T10:15:17.497Z,2.67
2018-12-30T10:20:19.118Z,2.10
2018-12-30T10:22:47.057Z,2.23
2018-12-30T10:25:15.021Z,2.30
2018-12-30T10:27:42.995Z,2.40
2018-12-30T10:30:11.677Z,2.33
2018-12-30T10:32:39.337Z,2.40
2018-12-30T10:35:06.993Z,3.60
2018-12-30T10:37:54.374Z,2.40
2018-12-30T10:40:22.039Z,2.50
2018-12-30T10:43:09.059Z,2.37
2018-12-30T10:45:37.689Z,3.10
2018-12-30T10:48:05.670Z,3.40
2018-12-30T10:53:20.517Z,2.90
2018-12-30T10:55:48.190Z,2.87
2018-12-30T10:58:16.290Z,6.47
2018-12-30T11:00:44.780Z,3.20
2018-12-30T11:03:12.521Z,3.70
2018-12-30T11:05:40.211Z,3.60
2018-12-30T11:08:08.467Z,3.43
2018-12-30T11:10:36.746Z,3.10
2018-12-30T11:13:04.701Z,3.70
2018-12-30T11:15:33.317Z,3.57
2018-12-30T11:18:00.977Z,5.17
2018-12-30T11:20:29.018Z,3.80
2018-12-30T11:22:57.021Z,3.97
2018-12-30T11:27:58.911Z,3.60
2018-12-30T11:30:26.946Z,4.40
2018-12-30T11:32:54.873Z,4.57
2018-12-30T11:35:22.833Z,4.33
2018-12-30T11:37:51.375Z,7.93
2018-12-30T11:40:19.642Z,4.80
2018-12-30T11:45:20.896Z,4.53
2018-12-30T11:47:48.640Z,13.47
2018-12-30T11:50:16.285Z,7.33
2018-12-30T11:52:44.258Z,3.93
2018-12-30T11:55:12.877Z,4.87
2018-12-30T11:57:40.912Z,4.00
2018-12-30T12:00:28.382Z,4.23
2018-12-30T12:02:56.552Z,3.20
2018-12-30T12:05:24.882Z,3.60
2018-12-30T12:07:59.590Z,3.30
2018-12-30T12:10:28.152Z,3.40
2018-12-30T12:12:55.905Z,3.70
2018-12-30T12:15:23.933Z,3.70
2018-12-30T12:17:52.166Z,3.80
2018-12-30T12:20:20.219Z,3.73
2018-12-30T12:25:22.089Z,3.37
2018-12-30T12:27:50.372Z,2.83
2018-12-30T12:30:18.369Z,4.40
2018-12-30T12:32:46.281Z,4.13
2018-12-30T12:35:13.945Z,3.73
2018-12-30T12:37:41.955Z,4.60
2018-12-30T12:40:09.867Z,3.80
2018-12-30T12:42:37.578Z,3.63
2018-12-30T12:45:06.001Z,3.43
2018-12-30T12:47:34.434Z,3.50
2018-12-30T12:50:02.081Z,5.83
2018-12-30T12:52:29.735Z,4.30
2018-12-30T12:54:58.144Z,3.30
2018-12-30T12:57:26.414Z,3.73
2018-12-30T12:59:54.460Z,4.33
2018-12-30T13:02:22.770Z,3.93
2018-12-30T13:07:24.736Z,3.37
2018-12-30T13:09:52.785Z,4.10
2018-12-30T13:15:28.382Z,4.83
2018-12-30T13:17:56.492Z,3.70
2018-12-30T13:20:43.545Z,4.30
2018-12-30T13:23:11.181Z,4.03
2018-12-30T13:25:39.157Z,4.23
2018-12-30T13:28:06.812Z,3.87
2018-12-30T13:30:34.782Z,4.33
2018-12-30T13:33:02.433Z,4.57
2018-12-30T13:35:30.911Z,4.40
2018-12-30T13:37:58.934Z,4.40
2018-12-30T13:40:27.223Z,4.03
2018-12-30T13:42:55.185Z,4.60
2018-12-30T13:45:22.857Z,3.70
2018-12-30T13:47:51.081Z,5.20
2018-12-30T13:50:19.115Z,4.50
2018-12-30T13:52:47.209Z,5.10
2018-12-30T13:55:15.159Z,4.73
2018-12-30T13:57:43.057Z,5.40
2018-12-30T14:00:10.997Z,4.80
2018-12-30T14:02:39.265Z,5.90
2018-12-30T14:05:07.218Z,5.77
2018-12-30T14:07:35.171Z,4.63
2018-12-30T14:12:50.249Z,5.23
2018-12-30T14:15:18.252Z,5.23
2018-12-30T14:18:05.013Z,4.67
2018-12-30T14:20:32.654Z,4.87
2018-12-30T14:23:00.889Z,4.30
2018-12-30T14:25:28.889Z,5.80
2018-12-30T14:27:56.930Z,4.80
2018-12-30T14:30:24.958Z,5.50
2018-12-30T14:32:52.676Z,4.93
2018-12-30T14:35:20.634Z,5.00
2018-12-30T14:37:50.452Z,6.37
2018-12-30T14:40:18.602Z,6.07
2018-12-30T14:42:46.854Z,5.83
2018-12-30T14:45:15.169Z,6.93
2018-12-30T14:47:43.186Z,7.70
2018-12-30T14:50:11.461Z,6.63
2018-12-30T14:52:39.453Z,8.60
2018-12-30T14:55:07.201Z,4.80
2018-12-30T14:57:35.427Z,7.77
2018-12-30T15:00:03.878Z,6.00
2018-12-30T15:02:31.888Z,5.20
2018-12-30T15:07:47.139Z,5.43
2018-12-30T15:10:15.065Z,4.53
2018-12-30T15:15:30.804Z,4.93
2018-12-30T15:17:59.014Z,4.70
2018-12-30T15:23:14.731Z,4.40
2018-12-30T15:28:30.085Z,5.30
2018-12-30T15:30:58.042Z,5.27
2018-12-30T15:33:25.706Z,6.47
2018-12-30T15:35:53.404Z,5.50
2018-12-30T15:38:21.056Z,5.77
2018-12-30T15:40:49.074Z,5.73
2018-12-30T15:43:16.774Z,4.47
2018-12-30T15:45:44.644Z,8.00
2018-12-30T15:48:12.594Z,6.30
2018-12-30T15:50:40.808Z,5.03
2018-12-30T15:53:08.826Z,4.93
2018-12-30T15:55:36.821Z,5.50
2018-12-30T15:58:04.716Z,5.53
2018-12-30T16:00:33.010Z,7.80
2018-12-30T16:03:00.975Z,7.80
2018-12-30T16:05:29.551Z,5.87
2018-12-30T16:07:57.902Z,5.17
2018-12-30T16:10:26.197Z,5.00
2018-12-30T16:12:54.414Z,5.87
2018-12-30T16:15:22.086Z,5.47
2018-12-30T16:17:50.018Z,5.20
2018-12-30T16:20:18.495Z,6.00
2018-12-30T16:22:46.607Z,4.93
2018-12-30T16:25:14.258Z,5.70
2018-12-30T16:27:42.511Z,5.87
2018-12-30T16:30:10.230Z,6.83
2018-12-30T16:32:37.897Z,6.30
2018-12-30T16:35:05.646Z,6.73
2018-12-30T16:37:34.046Z,6.53
2018-12-30T16:40:02.441Z,5.90
2018-12-30T16:42:30.728Z,5.77
2018-12-30T16:44:58.794Z,5.83
2018-12-30T16:47:27.178Z,6.30
2018-12-30T16:49:55.526Z,5.87
2018-12-30T16:52:23.186Z,6.50
2018-12-30T16:54:50.863Z,5.40
2018-12-30T16:57:18.531Z,6.73
2018-12-30T16:59:46.179Z,6.87
2018-12-30T17:02:13.827Z,6.63
2018-12-30T17:04:41.510Z,6.83
2018-12-30T17:07:09.385Z,6.40
2018-12-30T17:09:37.605Z,6.60
2018-12-30T17:14:52.491Z,6.57
2018-12-30T17:17:20.441Z,6.83
2018-12-30T17:19:49.010Z,7.00
2018-12-30T17:22:17.341Z,6.97
2018-12-30T17:24:45.300Z,7.37
2018-12-30T17:27:12.926Z,6.80
2018-12-30T17:29:40.589Z,7.90
2018-12-30T17:32:08.954Z,9.00
2018-12-30T17:34:37.222Z,9.70
2018-12-30T17:37:05.194Z,8.90
2018-12-30T17:39:33.882Z,9.50
2018-12-30T17:42:01.525Z,8.80
2018-12-30T17:44:29.425Z,10.13
2018-12-30T17:46:57.646Z,10.33
2018-12-30T17:49:25.306Z,11.00
2018-12-30T17:51:53.309Z,10.57
2018-12-30T17:54:22.002Z,11.60
2018-12-30T17:56:49.654Z,11.57
2018-12-30T17:59:18.017Z,11.30
2018-12-30T18:02:05.303Z,10.60
2018-12-30T18:04:33.245Z,10.67
2018-12-30T18:07:20.252Z,11.00
2018-12-30T18:09:48.162Z,11.33
2018-12-30T18:12:16.152Z,10.80
2018-12-30T18:14:44.135Z,10.70
2018-12-30T18:17:31.122Z,10.43
2018-12-30T18:19:59.088Z,9.87
2018-12-30T18:22:27.327Z,11.27
2018-12-30T18:27:41.900Z,11.63
2018-12-30T18:30:09.562Z,10.90
2018-12-30T18:35:24.749Z,12.10
2018-12-30T18:37:53.122Z,12.43
2018-12-30T18:40:20.893Z,11.33
2018-12-30T18:42:48.808Z,12.30
2018-12-30T18:45:16.550Z,11.77
2018-12-30T18:47:44.450Z,11.47
2018-12-30T18:50:12.125Z,12.30
2018-12-30T18:52:40.529Z,12.03
2018-12-30T18:55:08.457Z,12.77
2018-12-30T18:57:37.092Z,13.10
2018-12-30T19:02:54.521Z,13.30
2018-12-30T19:05:22.559Z,13.73
2018-12-30T19:07:51.080Z,14.10
2018-12-30T19:10:37.841Z,14.40
2018-12-30T19:13:06.144Z,14.00
2018-12-30T19:15:33.801Z,15.83
2018-12-30T19:18:01.842Z,15.40
2018-12-30T19:20:29.825Z,15.97
2018-12-30T19:22:57.812Z,14.60
2018-12-30T19:25:26.073Z,16.03
2018-12-30T19:27:53.731Z,16.33
2018-12-30T19:30:21.715Z,17.80
2018-12-30T19:32:50.030Z,18.27
2018-12-30T19:35:18.893Z,18.63
2018-12-30T19:37:47.806Z,22.40
2018-12-30T19:40:15.828Z,22.83
2018-12-30T19:42:43.766Z,21.63
2018-12-30T19:45:11.994Z,21.27
2018-12-30T19:47:59.018Z,22.20
2018-12-30T19:50:27.313Z,18.83
2018-12-30T19:52:55.209Z,19.50
2018-12-30T19:55:23.557Z,21.27
2018-12-30T19:57:51.834Z,20.20
2018-12-30T20:00:19.507Z,20.57
2018-12-30T20:02:47.409Z,19.33
2018-12-30T20:05:34.190Z,19.70
2018-12-30T20:08:02.658Z,18.73
2018-12-30T20:10:49.426Z,18.40
2018-12-30T20:13:17.329Z,18.50
2018-12-30T20:18:19.829Z,17.30
2018-12-30T20:20:48.211Z,17.60
2018-12-30T20:23:16.177Z,17.50
2018-12-30T20:25:44.203Z,17.87
2018-12-30T20:28:11.837Z,17.10
2018-12-30T20:30:39.502Z,17.50
2018-12-30T20:33:07.810Z,19.10
2018-12-30T20:35:54.982Z,17.63
2018-12-30T20:38:22.982Z,17.17
2018-12-30T20:40:51.194Z,17.87
2018-12-30T20:43:19.225Z,16.43
2018-12-30T20:45:47.166Z,16.73
2018-12-30T20:48:15.264Z,17.50
2018-12-30T20:50:43.266Z,17.83
2018-12-30T20:53:11.262Z,17.73
2018-12-30T20:55:39.010Z,18.93
2018-12-30T20:58:07.252Z,18.40
2018-12-30T21:00:35.486Z,19.13
2018-12-30T21:03:03.650Z,18.90
2018-12-30T21:05:31.598Z,18.20
2018-12-30T21:07:59.248Z,17.53
2018-12-30T21:10:46.310Z,16.97
2018-12-30T21:13:14.569Z,16.80
2018-12-30T21:15:42.613Z,16.20
2018-12-30T21:18:10.984Z,15.67
2018-12-30T21:20:58.269Z,14.20
2018-12-30T21:23:26.215Z,15.10
2018-12-30T21:25:54.380Z,14.80
2018-12-30T21:28:23.076Z,13.70
2018-12-30T21:30:50.720Z,14.80
2018-12-30T21:33:18.666Z,14.47
2018-12-30T21:35:46.397Z,13.77
2018-12-30T21:38:14.411Z,13.67
2018-12-30T21:41:01.426Z,15.00
2018-12-30T21:43:29.090Z,14.77
2018-12-30T21:46:16.085Z,14.37
2018-12-30T21:48:44.070Z,13.97
2018-12-30T21:51:12.282Z,13.70
2018-12-30T21:53:40.545Z,13.70
2018-12-30T21:56:08.942Z,13.80
2018-12-30T21:58:36.993Z,13.27
2018-12-30T22:01:04.909Z,12.60
2018-12-30T22:03:32.855Z,14.07
2018-12-30T22:06:01.317Z,14.63
2018-12-30T22:08:48.092Z,14.07
2018-12-30T22:11:16.593Z,14.43
2018-12-30T22:13:44.274Z,14.40
2018-12-30T22:16:12.278Z,14.53
2018-12-30T22:18:40.622Z,14.30
2018-12-30T22:21:08.517Z,13.97
2018-12-30T22:23:36.861Z,14.90
2018-12-30T22:26:04.817Z,15.60
2018-12-30T22:28:32.492Z,15.00
2018-12-30T22:31:19.514Z,15.40
2018-12-30T22:36:21.148Z,14.63
2018-12-30T22:38:49.066Z,16.93
2018-12-30T22:41:16.969Z,16.20
2018-12-30T22:43:45.140Z,16.20
2018-12-30T22:46:13.045Z,14.20
2018-12-30T22:48:40.996Z,14.87
2018-12-30T22:51:08.948Z,14.07
2018-12-30T22:53:36.605Z,14.70
2018-12-30T22:56:23.626Z,15.00
2018-12-30T22:58:51.644Z,15.73
2018-12-30T23:01:24.042Z,14.93
2018-12-30T23:03:51.979Z,14.10
2018-12-30T23:06:20.469Z,14.47
2018-12-30T23:08:48.509Z,14.17
2018-12-30T23:11:35.554Z,15.07
2018-12-30T23:14:03.946Z,13.97
2018-12-30T23:16:50.961Z,13.37
2018-12-30T23:19:19.220Z,13.20
2018-12-30T23:21:47.565Z,12.90
2018-12-30T23:24:15.526Z,12.30
2018-12-30T23:26:43.821Z,13.17
2018-12-30T23:29:11.489Z,13.33
2018-12-30T23:31:39.470Z,13.33
2018-12-30T23:34:07.418Z,13.60
2018-12-30T23:36:35.390Z,12.60
2018-12-30T23:39:03.421Z,13.50
2018-12-30T23:41:31.109Z,13.30
2018-12-30T23:43:59.113Z,13.03
2018-12-30T23:46:26.765Z,12.50
2018-12-30T23:48:55.272Z,13.20
2018-12-30T23:51:23.234Z,13.17
2018-12-30T23:56:38.330Z,13.47
2018-12-30T23:59:06.661Z,13.57
